createdAt,value
2018-01-29T00:02:04.084Z,94.80
2018-01-29T00:04:31.725Z,94.50
2018-01-29T00:07:00.359Z,94.00
2018-01-29T00:09:28.059Z,94.00
2018-01-29T00:11:55.809Z,94.10
2018-01-29T00:14:23.531Z,93.80
2018-01-29T00:16:51.244Z,93.80
2018-01-29T00:19:18.968Z,93.90
2018-01-29T00:21:46.770Z,94.00
2018-01-29T00:24:14.404Z,94.00
2018-01-29T00:26:42.119Z,93.90
2018-01-29T00:29:09.874Z,94.10
2018-01-29T00:31:37.535Z,93.90
2018-01-29T00:34:05.323Z,93.90
2018-01-29T00:36:33.819Z,94.50
2018-01-29T00:39:02.314Z,94.60
2018-01-29T00:41:30.084Z,94.60
2018-01-29T00:43:58.001Z,94.80
2018-01-29T00:46:25.622Z,94.70
2018-01-29T00:48:53.503Z,94.80
2018-01-29T00:51:21.374Z,94.70
2018-01-29T00:53:49.088Z,94.40
2018-01-29T00:56:16.841Z,94.30
2018-01-29T00:58:45.300Z,94.20
2018-01-29T01:01:13.223Z,94.20
2018-01-29T01:03:41.814Z,94.30
2018-01-29T01:06:09.701Z,94.30
2018-01-29T01:08:37.325Z,94.30
2018-01-29T01:11:04.955Z,94.20
2018-01-29T01:13:32.692Z,94.10
2018-01-29T01:16:00.321Z,94.40
2018-01-29T01:18:28.797Z,94.40
2018-01-29T01:20:57.287Z,94.30
2018-01-29T01:23:25.966Z,94.10
2018-01-29T01:25:53.677Z,94.10
2018-01-29T01:28:22.275Z,94.20
2018-01-29T01:30:49.958Z,94.10
2018-01-29T01:33:17.764Z,94.10
2018-01-29T01:35:45.630Z,94.30
2018-01-29T01:38:13.456Z,94.40
2018-01-29T01:40:41.127Z,94.40
2018-01-29T01:43:08.935Z,94.30
2018-01-29T01:45:36.622Z,94.30
2018-01-29T01:48:04.364Z,94.20
2018-01-29T01:50:32.276Z,94.20
2018-01-29T01:53:00.936Z,94.40
2018-01-29T01:55:28.627Z,94.50
2018-01-29T01:57:56.332Z,94.40
2018-01-29T02:00:24.824Z,94.20
2018-01-29T02:02:52.433Z,94.20
2018-01-29T02:05:20.094Z,94.20
2018-01-29T02:07:47.738Z,94.40
2018-01-29T02:10:15.534Z,94.70
2018-01-29T02:12:43.181Z,94.70
2018-01-29T02:15:10.827Z,94.60
2018-01-29T02:17:38.611Z,94.60
2018-01-29T02:20:06.319Z,94.50
2018-01-29T02:22:34.792Z,94.20
2018-01-29T02:25:03.291Z,94.20
2018-01-29T02:27:31.881Z,94.60
2018-01-29T02:30:00.398Z,94.40
2018-01-29T02:32:28.077Z,94.40
2018-01-29T02:34:55.765Z,94.80
2018-01-29T02:37:23.443Z,94.60
2018-01-29T02:39:51.942Z,94.80
2018-01-29T02:42:20.444Z,94.70
2018-01-29T02:44:48.214Z,94.70
2018-01-29T02:47:16.072Z,94.60
2018-01-29T02:49:43.836Z,94.70
2018-01-29T02:52:11.568Z,94.60
2018-01-29T02:54:40.015Z,94.50
2018-01-29T02:57:08.016Z,94.50
2018-01-29T02:59:35.827Z,94.60
2018-01-29T03:02:03.462Z,94.70
2018-01-29T03:04:31.942Z,94.70
2018-01-29T03:06:59.595Z,94.70
2018-01-29T03:09:27.273Z,94.60
2018-01-29T03:11:55.834Z,95.00
2018-01-29T03:14:23.544Z,95.00
2018-01-29T03:16:51.448Z,95.30
2018-01-29T03:19:19.331Z,95.20
2018-01-29T03:21:47.165Z,95.40
2018-01-29T03:24:14.821Z,95.40
2018-01-29T03:26:42.506Z,95.10
2018-01-29T03:29:11.153Z,95.60
2018-01-29T03:31:38.880Z,95.30
2018-01-29T03:34:06.593Z,95.60
2018-01-29T03:36:34.309Z,95.50
2018-01-29T03:39:02.172Z,95.70
2018-01-29T03:41:30.606Z,95.30
2018-01-29T03:43:58.234Z,95.30
2018-01-29T03:46:25.950Z,95.20
2018-01-29T03:48:53.558Z,95.10
2018-01-29T03:51:22.009Z,94.90
2018-01-29T03:53:49.865Z,94.90
2018-01-29T03:56:17.581Z,95.00
2018-01-29T03:58:45.270Z,94.80
2018-01-29T04:01:12.877Z,94.70
2018-01-29T04:03:40.642Z,94.40
2018-01-29T04:06:08.334Z,94.10
2018-01-29T04:08:35.961Z,94.30
2018-01-29T04:11:03.564Z,94.20
2018-01-29T04:13:31.995Z,94.20
2018-01-29T04:15:59.606Z,94.20
2018-01-29T04:18:28.055Z,94.70
2018-01-29T04:20:55.764Z,94.70
2018-01-29T04:23:23.402Z,94.80
2018-01-29T04:25:51.866Z,94.60
2018-01-29T04:28:19.673Z,94.60
2018-01-29T04:30:47.468Z,94.60
2018-01-29T04:33:15.285Z,95.00
2018-01-29T04:35:43.829Z,95.20
2018-01-29T04:38:11.612Z,95.10
2018-01-29T04:40:39.238Z,94.90
2018-01-29T04:43:07.648Z,95.10
2018-01-29T04:45:35.289Z,95.10
2018-01-29T04:48:03.137Z,95.20
2018-01-29T04:50:30.804Z,95.30
2018-01-29T04:52:58.492Z,95.50
2018-01-29T04:55:26.164Z,95.30
2018-01-29T04:57:53.867Z,95.40
2018-01-29T05:00:22.287Z,95.20
2018-01-29T05:02:50.009Z,95.20
2018-01-29T05:05:18.466Z,94.90
2018-01-29T05:07:46.155Z,94.90
2018-01-29T05:10:13.828Z,95.00
2018-01-29T05:12:42.380Z,94.80
2018-01-29T05:15:10.177Z,94.80
2018-01-29T05:17:37.939Z,94.60
2018-01-29T05:20:06.455Z,94.50
2018-01-29T05:22:34.266Z,94.50
2018-01-29T05:25:01.979Z,94.70
2018-01-29T05:27:29.606Z,94.70
2018-01-29T05:29:58.020Z,94.50
2018-01-29T05:32:25.806Z,94.40
2018-01-29T05:34:53.554Z,94.70
2018-01-29T05:37:26.704Z,94.70
2018-01-29T05:39:55.252Z,94.90
2018-01-29T05:42:23.722Z,94.70
2018-01-29T05:44:51.437Z,94.70
2018-01-29T05:47:19.216Z,94.80
2018-01-29T05:49:46.965Z,94.90
2018-01-29T05:52:14.628Z,94.80
2018-01-29T05:54:43.080Z,95.20
2018-01-29T05:57:10.877Z,95.20
2018-01-29T05:59:39.366Z,95.40
2018-01-29T06:02:07.801Z,95.20
2018-01-29T06:04:35.454Z,95.20
2018-01-29T06:07:03.124Z,95.10
2018-01-29T06:09:31.723Z,94.80
2018-01-29T06:11:59.441Z,94.80
2018-01-29T06:14:27.151Z,95.10
2018-01-29T06:16:54.940Z,95.10
2018-01-29T06:19:22.572Z,95.10
2018-01-29T06:21:50.232Z,95.10
2018-01-29T06:24:17.994Z,94.90
2018-01-29T06:26:45.639Z,95.00
2018-01-29T06:29:13.281Z,95.20
2018-01-29T06:31:41.633Z,94.90
2018-01-29T06:34:09.294Z,94.90
2018-01-29T06:36:36.899Z,94.90
2018-01-29T06:39:04.524Z,94.70
2018-01-29T06:41:32.148Z,94.90
2018-01-29T06:43:59.764Z,94.90
2018-01-29T06:46:28.145Z,95.10
2018-01-29T06:48:56.861Z,95.00
2018-01-29T06:51:24.484Z,95.00
2018-01-29T06:53:52.092Z,95.30
2018-01-29T06:56:19.765Z,95.30
2018-01-29T06:58:47.375Z,95.30
2018-01-29T07:01:15.782Z,95.20
2018-01-29T07:03:43.396Z,95.20
2018-01-29T07:06:11.012Z,95.20
2018-01-29T07:08:38.651Z,95.00
2018-01-29T07:11:07.034Z,94.90
2018-01-29T07:13:34.702Z,94.90
2018-01-29T07:16:02.370Z,94.80
2018-01-29T07:18:30.012Z,95.10
2018-01-29T07:20:58.377Z,95.00
2018-01-29T07:23:25.994Z,95.00
2018-01-29T07:25:53.609Z,94.80
2018-01-29T07:28:21.227Z,94.60
2018-01-29T07:30:48.838Z,94.70
2018-01-29T07:33:17.307Z,94.50
2018-01-29T07:35:44.915Z,94.40
2018-01-29T07:38:12.517Z,94.60
2018-01-29T07:40:40.163Z,94.70
2018-01-29T07:43:08.540Z,94.60
2018-01-29T07:45:36.167Z,94.40
2018-01-29T07:48:04.542Z,94.60
2018-01-29T07:50:32.926Z,94.80
2018-01-29T07:53:00.534Z,94.80
2018-01-29T07:55:28.179Z,94.90
2018-01-29T07:57:55.821Z,94.80
2018-01-29T08:00:23.509Z,94.90
2018-01-29T08:02:51.140Z,94.90
2018-01-29T08:05:18.751Z,94.90
2018-01-29T08:07:46.397Z,94.70
2018-01-29T08:10:14.026Z,94.40
2018-01-29T08:12:41.710Z,94.40
2018-01-29T08:15:09.322Z,95.00
2018-01-29T08:17:36.941Z,95.00
2018-01-29T08:20:04.544Z,95.00
2018-01-29T08:22:32.960Z,94.90
2018-01-29T08:25:00.573Z,94.90
2018-01-29T08:27:28.296Z,95.10
2018-01-29T08:29:55.995Z,95.50
2018-01-29T08:32:23.614Z,95.60
2018-01-29T08:34:52.095Z,95.70
2018-01-29T08:37:19.741Z,95.70
2018-01-29T08:39:48.153Z,95.60
2018-01-29T08:42:15.775Z,95.50
2018-01-29T08:44:44.198Z,95.40
2018-01-29T08:47:11.810Z,95.30
2018-01-29T08:49:39.418Z,95.40
2018-01-29T08:52:07.042Z,95.10
2018-01-29T08:54:35.475Z,95.10
2018-01-29T08:57:03.166Z,95.10
2018-01-29T08:59:30.766Z,95.30
2018-01-29T09:01:59.144Z,95.30
2018-01-29T09:04:27.510Z,95.30
2018-01-29T09:06:55.899Z,95.20
2018-01-29T09:09:24.330Z,95.40
2018-01-29T09:11:51.939Z,95.40
2018-01-29T09:14:20.365Z,95.40
2018-01-29T09:16:47.999Z,95.40
2018-01-29T09:19:15.610Z,95.80
2018-01-29T09:21:43.218Z,95.80
2018-01-29T09:24:11.582Z,95.80
2018-01-29T09:26:40.000Z,95.70
2018-01-29T09:29:07.619Z,95.70
2018-01-29T09:31:36.041Z,95.80
2018-01-29T09:34:03.648Z,95.60
2018-01-29T09:36:31.431Z,95.90
2018-01-29T09:38:59.201Z,95.40
2018-01-29T09:41:27.602Z,95.70
2018-01-29T09:43:55.219Z,95.60
2018-01-29T09:46:22.875Z,95.60
2018-01-29T09:48:50.499Z,95.50
2018-01-29T09:51:18.170Z,95.70
2018-01-29T09:53:45.802Z,95.70
2018-01-29T09:56:14.206Z,95.40
2018-01-29T09:58:41.818Z,95.40
2018-01-29T10:01:10.217Z,95.20
2018-01-29T10:03:38.654Z,95.30
2018-01-29T10:06:06.266Z,95.20
2018-01-29T10:08:34.641Z,95.10
2018-01-29T10:11:02.247Z,95.10
2018-01-29T10:13:29.887Z,94.70
2018-01-29T10:15:57.504Z,94.60
2018-01-29T10:18:25.171Z,94.90
2018-01-29T10:20:52.792Z,94.50
2018-01-29T10:23:20.428Z,94.40
2018-01-29T10:25:48.036Z,94.30
2018-01-29T10:28:15.800Z,94.10
2018-01-29T10:30:43.461Z,94.40
2018-01-29T10:33:11.057Z,94.30
2018-01-29T10:35:39.441Z,94.00
2018-01-29T10:38:07.865Z,93.50
2018-01-29T10:40:35.494Z,93.50
2018-01-29T10:43:03.145Z,93.80
2018-01-29T10:45:31.547Z,93.70
2018-01-29T10:47:59.151Z,93.70
2018-01-29T10:50:26.745Z,93.30
2018-01-29T10:52:54.410Z,93.50
2018-01-29T10:55:22.836Z,93.60
2018-01-29T10:57:50.528Z,93.60
2018-01-29T11:00:18.204Z,93.30
2018-01-29T11:02:45.904Z,93.30
2018-01-29T11:05:13.643Z,93.30
2018-01-29T11:07:41.248Z,93.30
2018-01-29T11:10:08.903Z,93.40
2018-01-29T11:12:36.517Z,93.20
2018-01-29T11:15:04.129Z,93.00
2018-01-29T11:17:31.775Z,93.30
2018-01-29T11:19:59.478Z,93.10
2018-01-29T11:22:27.071Z,93.20
2018-01-29T11:24:55.545Z,92.90
2018-01-29T11:27:23.189Z,92.90
2018-01-29T11:29:50.807Z,92.70
2018-01-29T11:32:18.432Z,92.80
2018-01-29T11:34:46.045Z,92.90
2018-01-29T11:37:13.699Z,92.80
2018-01-29T11:39:41.310Z,92.30
2018-01-29T11:42:08.995Z,92.20
2018-01-29T11:44:36.670Z,92.30
2018-01-29T11:47:05.088Z,92.50
2018-01-29T11:49:32.771Z,92.50
2018-01-29T11:52:00.373Z,92.10
2018-01-29T11:54:28.818Z,92.00
2018-01-29T11:56:56.430Z,92.00
2018-01-29T11:59:24.939Z,92.10
2018-01-29T12:01:52.609Z,91.70
2018-01-29T12:04:20.238Z,92.00
2018-01-29T12:06:48.628Z,91.60
2018-01-29T12:09:16.276Z,91.50
2018-01-29T12:11:44.677Z,91.30
2018-01-29T12:14:12.296Z,91.30
2018-01-29T12:16:40.039Z,91.00
2018-01-29T12:19:07.654Z,91.60
2018-01-29T12:21:35.298Z,91.40
2018-01-29T12:24:03.718Z,91.40
2018-01-29T12:26:31.378Z,91.30
2018-01-29T12:29:00.188Z,91.60
2018-01-29T12:31:27.939Z,91.60
2018-01-29T12:33:56.339Z,91.40
2018-01-29T12:36:24.845Z,91.30
2018-01-29T12:38:52.454Z,91.30
2018-01-29T12:41:20.083Z,91.20
2018-01-29T12:43:47.815Z,91.20
2018-01-29T12:46:15.457Z,91.10
2018-01-29T12:48:43.102Z,91.60
2018-01-29T12:51:10.838Z,91.20
2018-01-29T12:53:39.208Z,91.60
2018-01-29T12:56:06.843Z,91.50
2018-01-29T12:58:34.472Z,92.00
2018-01-29T13:01:02.096Z,91.60
2018-01-29T13:03:29.710Z,91.50
2018-01-29T13:05:57.431Z,91.60
2018-01-29T13:08:25.830Z,91.80
2018-01-29T13:10:53.481Z,91.80
2018-01-29T13:13:21.953Z,91.90
2018-01-29T13:15:49.564Z,91.90
2018-01-29T13:18:17.186Z,91.80
2018-01-29T13:20:45.604Z,90.50
2018-01-29T13:23:13.282Z,90.50
2018-01-29T13:25:40.927Z,90.40
2018-01-29T13:28:08.550Z,90.40
2018-01-29T13:30:36.922Z,88.90
2018-01-29T13:33:05.367Z,89.40
2018-01-29T13:35:32.989Z,89.40
2018-01-29T13:38:01.446Z,88.00
2018-01-29T13:40:29.045Z,87.90
2018-01-29T13:42:56.663Z,87.00
2018-01-29T13:45:24.280Z,87.40
2018-01-29T13:47:52.672Z,88.30
2018-01-29T13:50:20.354Z,87.60
2018-01-29T13:52:47.985Z,88.60
2018-01-29T13:55:15.609Z,89.00
2018-01-29T13:57:43.254Z,89.10
2018-01-29T14:00:10.860Z,89.00
2018-01-29T14:02:38.493Z,89.20
2018-01-29T14:05:06.121Z,89.50
2018-01-29T14:07:33.883Z,89.20
2018-01-29T14:10:01.565Z,89.00
2018-01-29T14:12:29.241Z,88.80
2018-01-29T14:14:56.842Z,88.90
2018-01-29T14:17:24.450Z,89.10
2018-01-29T14:19:52.040Z,89.20
2018-01-29T14:22:20.411Z,89.10
2018-01-29T14:24:48.031Z,88.50
2018-01-29T14:27:15.679Z,88.20
2018-01-29T14:29:43.277Z,89.00
2018-01-29T14:32:10.902Z,89.10
2018-01-29T14:34:38.513Z,88.90
2018-01-29T14:37:06.148Z,88.60
2018-01-29T14:39:33.738Z,88.30
2018-01-29T14:42:01.358Z,88.30
2018-01-29T14:44:28.973Z,88.20
2018-01-29T14:46:57.366Z,88.90
2018-01-29T14:49:25.716Z,88.30
2018-01-29T14:51:53.317Z,88.30
2018-01-29T14:54:20.922Z,88.80
2018-01-29T14:56:48.529Z,88.50
2018-01-29T14:59:16.175Z,88.30
2018-01-29T15:01:43.782Z,88.50
2018-01-29T15:04:11.529Z,88.80
2018-01-29T15:06:39.906Z,88.50
2018-01-29T15:09:08.265Z,88.50
2018-01-29T15:11:36.665Z,89.00
2018-01-29T15:14:04.297Z,88.30
2018-01-29T15:16:31.926Z,88.20
2018-01-29T15:18:59.533Z,88.60
2018-01-29T15:21:27.947Z,89.00
2018-01-29T15:23:55.545Z,88.80
2018-01-29T15:26:23.162Z,89.00
2018-01-29T15:28:50.774Z,89.10
2018-01-29T15:31:18.387Z,88.90
2018-01-29T15:33:46.030Z,88.80
2018-01-29T15:36:15.113Z,88.30
2018-01-29T15:38:42.751Z,88.30
2018-01-29T15:41:10.358Z,87.60
2018-01-29T15:43:38.857Z,87.40
2018-01-29T15:46:06.476Z,87.60
2018-01-29T15:48:34.178Z,87.50
2018-01-29T15:51:01.818Z,87.80
2018-01-29T15:53:30.210Z,88.10
2018-01-29T15:55:58.573Z,87.00
2018-01-29T15:58:26.960Z,86.90
2018-01-29T16:00:55.387Z,87.00
2018-01-29T16:03:23.018Z,87.00
2018-01-29T16:05:50.648Z,87.10
2018-01-29T16:08:18.315Z,87.70
2018-01-29T16:10:45.919Z,86.70
2018-01-29T16:13:13.562Z,87.10
2018-01-29T16:15:41.991Z,86.90
2018-01-29T16:18:09.601Z,86.80
2018-01-29T16:20:38.023Z,87.10
2018-01-29T16:23:05.626Z,87.60
2018-01-29T16:25:34.052Z,87.70
2018-01-29T16:28:01.645Z,87.60
2018-01-29T16:30:29.271Z,87.40
2018-01-29T16:32:56.895Z,87.60
2018-01-29T16:35:25.308Z,87.40
2018-01-29T16:37:52.899Z,87.40
2018-01-29T16:40:20.519Z,87.50
2018-01-29T16:42:48.892Z,88.10
2018-01-29T16:45:17.278Z,88.10
2018-01-29T16:47:45.640Z,88.30
2018-01-29T16:50:13.256Z,88.20
2018-01-29T16:52:40.862Z,88.50
2018-01-29T16:55:08.510Z,87.90
2018-01-29T16:57:36.127Z,87.70
2018-01-29T17:00:03.815Z,87.90
2018-01-29T17:02:31.412Z,87.60
2018-01-29T17:04:59.038Z,87.40
2018-01-29T17:07:26.690Z,87.60
2018-01-29T17:09:54.304Z,87.80
2018-01-29T17:12:22.707Z,87.60
2018-01-29T17:14:50.313Z,87.60
2018-01-29T17:17:17.946Z,87.40
2018-01-29T17:19:45.577Z,87.20
2018-01-29T17:22:13.950Z,87.20
2018-01-29T17:24:42.823Z,87.10
2018-01-29T17:27:10.422Z,87.60
2018-01-29T17:29:38.085Z,87.20
2018-01-29T17:32:06.452Z,87.40
2018-01-29T17:34:34.878Z,86.70
2018-01-29T17:37:02.510Z,86.70
2018-01-29T17:39:30.903Z,87.10
2018-01-29T17:41:58.538Z,87.10
2018-01-29T17:44:26.945Z,86.60
2018-01-29T17:46:54.566Z,86.60
2018-01-29T17:49:22.194Z,87.10
2018-01-29T17:51:49.851Z,86.30
2018-01-29T17:54:18.272Z,85.80
2018-01-29T17:56:45.880Z,85.80
2018-01-29T17:59:13.588Z,85.70
2018-01-29T18:01:41.185Z,86.20
2018-01-29T18:04:09.555Z,87.20
2018-01-29T18:06:38.004Z,87.30
2018-01-29T18:09:05.795Z,87.20
2018-01-29T18:11:34.193Z,87.30
2018-01-29T18:14:02.711Z,87.50
2018-01-29T18:16:30.349Z,87.50
2018-01-29T18:18:58.251Z,87.00
2018-01-29T18:21:25.950Z,87.20
2018-01-29T18:23:53.659Z,86.70
2018-01-29T18:26:21.433Z,86.30
2018-01-29T18:28:49.075Z,85.90
2018-01-29T18:31:16.720Z,86.20
2018-01-29T18:33:45.242Z,84.40
2018-01-29T18:36:12.977Z,84.40
2018-01-29T18:38:40.738Z,84.70
2018-01-29T18:41:09.126Z,85.50
2018-01-29T18:43:37.530Z,84.80
2018-01-29T18:46:06.357Z,84.70
2018-01-29T18:48:34.082Z,85.10
2018-01-29T18:51:01.790Z,84.30
2018-01-29T18:53:29.410Z,85.20
2018-01-29T18:55:57.210Z,84.20
2018-01-29T18:58:24.849Z,84.70
2018-01-29T19:00:52.527Z,85.00
2018-01-29T19:03:20.253Z,84.90
2018-01-29T19:05:48.046Z,84.40
2018-01-29T19:08:16.511Z,83.80
2018-01-29T19:10:44.372Z,83.80
2018-01-29T19:13:12.029Z,85.00
2018-01-29T19:15:39.733Z,84.60
2018-01-29T19:18:07.409Z,84.40
2018-01-29T19:20:35.077Z,84.80
2018-01-29T19:23:02.763Z,84.70
2018-01-29T19:25:31.296Z,84.40
2018-01-29T19:27:59.040Z,84.40
2018-01-29T19:30:26.683Z,84.30
2018-01-29T19:32:55.165Z,83.80
2018-01-29T19:35:23.746Z,84.10
2018-01-29T19:37:52.184Z,84.00
2018-01-29T19:40:20.138Z,83.90
2018-01-29T19:42:48.031Z,84.30
2018-01-29T19:45:15.681Z,84.50
2018-01-29T19:47:43.587Z,83.60
2018-01-29T19:50:11.355Z,84.10
2018-01-29T19:52:39.338Z,83.20
2018-01-29T19:55:07.866Z,83.80
2018-01-29T19:57:35.902Z,83.80
2018-01-29T20:00:03.577Z,84.10
2018-01-29T20:02:31.293Z,83.10
2018-01-29T20:04:58.994Z,83.00
2018-01-29T20:07:27.452Z,83.50
2018-01-29T20:09:55.288Z,83.60
2018-01-29T20:12:23.002Z,83.40
2018-01-29T20:14:51.519Z,83.60
2018-01-29T20:17:19.306Z,83.50
2018-01-29T20:19:47.006Z,84.00
2018-01-29T20:22:14.807Z,83.10
2018-01-29T20:24:43.258Z,82.90
2018-01-29T20:27:11.030Z,82.90
2018-01-29T20:29:38.741Z,83.20
2018-01-29T20:32:06.401Z,83.20
2018-01-29T20:34:34.040Z,83.30
2018-01-29T20:37:01.697Z,82.70
2018-01-29T20:39:29.356Z,82.70
2018-01-29T20:41:57.028Z,83.10
2018-01-29T20:44:24.753Z,82.80
2018-01-29T20:46:53.264Z,82.80
2018-01-29T20:49:21.066Z,82.70
2018-01-29T20:51:48.780Z,82.60
2018-01-29T20:54:17.294Z,82.30
2018-01-29T20:56:45.007Z,82.20
2018-01-29T20:59:13.800Z,82.20
2018-01-29T21:01:41.540Z,82.20
2018-01-29T21:04:09.251Z,82.30
2018-01-29T21:06:36.946Z,81.90
2018-01-29T21:09:04.601Z,81.90
2018-01-29T21:11:32.351Z,82.10
2018-01-29T21:14:00.885Z,82.70
2018-01-29T21:16:28.570Z,82.70
2018-01-29T21:18:56.246Z,82.10
2018-01-29T21:21:24.771Z,82.00
2018-01-29T21:23:52.601Z,82.00
2018-01-29T21:26:21.008Z,82.40
2018-01-29T21:28:48.854Z,82.30
2018-01-29T21:31:17.453Z,82.10
2018-01-29T21:33:45.158Z,82.10
2018-01-29T21:36:12.957Z,82.30
2018-01-29T21:38:41.500Z,83.10
2018-01-29T21:41:09.432Z,83.00
2018-01-29T21:43:37.877Z,82.70
2018-01-29T21:46:06.305Z,82.80
2018-01-29T21:48:34.214Z,82.70
2018-01-29T21:51:02.003Z,82.10
2018-01-29T21:53:30.445Z,82.30
2018-01-29T21:55:58.134Z,82.20
2018-01-29T21:58:25.808Z,82.30
2018-01-29T22:00:53.508Z,82.50
2018-01-29T22:03:21.202Z,82.30
2018-01-29T22:05:48.914Z,82.90
2018-01-29T22:08:17.470Z,83.20
2018-01-29T22:10:45.203Z,83.20
2018-01-29T22:13:12.909Z,83.40
2018-01-29T22:15:40.707Z,83.70
2018-01-29T22:18:09.106Z,83.80
2018-01-29T22:20:36.890Z,83.80
2018-01-29T22:23:04.766Z,84.00
2018-01-29T22:25:32.467Z,84.10
2018-01-29T22:28:00.906Z,86.80
2018-01-29T22:30:28.631Z,86.70
2018-01-29T22:32:57.063Z,87.70
2018-01-29T22:35:24.775Z,87.60
2018-01-29T22:37:53.279Z,87.70
2018-01-29T22:40:20.980Z,87.70
2018-01-29T22:42:48.696Z,88.00
2018-01-29T22:45:16.328Z,88.90
2018-01-29T22:47:44.863Z,88.70
2018-01-29T22:50:12.615Z,88.60
2018-01-29T22:52:40.287Z,88.80
2018-01-29T22:55:08.034Z,90.00
2018-01-29T22:57:35.808Z,90.20
2018-01-29T23:00:03.458Z,90.10
2018-01-29T23:02:31.861Z,90.20
2018-01-29T23:04:59.492Z,90.20
2018-01-29T23:07:27.987Z,90.30
2018-01-29T23:09:56.453Z,90.10
2018-01-29T23:12:24.158Z,90.10
2018-01-29T23:14:52.590Z,90.10
2018-01-29T23:17:20.307Z,90.10
2018-01-29T23:19:48.029Z,90.20
2018-01-29T23:22:15.855Z,90.50
2018-01-29T23:24:44.353Z,90.30
2018-01-29T23:27:12.403Z,90.30
2018-01-29T23:29:40.395Z,90.10
2018-01-29T23:32:08.137Z,90.00
2018-01-29T23:34:35.824Z,90.20
2018-01-29T23:37:03.462Z,90.20
2018-01-29T23:39:31.132Z,90.40
2018-01-29T23:41:58.791Z,90.20
2018-01-29T23:44:26.442Z,90.20
2018-01-29T23:46:54.062Z,90.40
2018-01-29T23:49:22.513Z,91.20
2018-01-29T23:51:50.195Z,91.20
2018-01-29T23:54:18.709Z,91.80
2018-01-29T23:56:47.218Z,92.30
2018-01-29T23:59:14.900Z,92.30
